Time;durP1;ratioP1;P1;durP2;ratioP2;P2;SDS_P1;SDS_P2;PMS_P1;PMS_P2;Temp;Humidity;BMP_temperature;BMP_pressure;BME280_temperature;BME280_humidity;BME280_pressure;Samples;Min_cycle;Max_cycle;Signal;HPM_P1;HPM_P2
2020/12/31 00:00:01;;;;;;;5.88;2.10;;;4.30;99.90;;;;;;4986094;28;20586;-74
2020/12/31 00:02:26;;;;;;;3.63;2.15;;;4.30;99.90;;;;;;4988834;28;20053;-75
2020/12/31 00:04:52;;;;;;;5.85;2.50;;;4.30;99.90;;;;;;4985262;28;20577;-74
2020/12/31 00:07:17;;;;;;;5.05;2.38;;;4.30;99.90;;;;;;4986337;28;20341;-75
2020/12/31 00:09:43;;;;;;;1.77;1.40;;;4.30;99.90;;;;;;5003776;28;20053;-75
2020/12/31 00:12:09;;;;;;;3.30;1.58;;;4.30;99.90;;;;;;4994386;28;20079;-75
2020/12/31 00:14:35;;;;;;;1.33;1.13;;;4.20;99.90;;;;;;5000805;28;20065;-73
2020/12/31 00:17:01;;;;;;;3.90;1.10;;;4.20;99.90;;;;;;5002465;28;20050;-75
2020/12/31 00:19:26;;;;;;;1.73;0.80;;;4.20;99.90;;;;;;4990572;28;20452;-74
2020/12/31 00:21:52;;;;;;;2.50;0.70;;;4.20;99.90;;;;;;4994296;28;20052;-75
2020/12/31 00:24:18;;;;;;;4.43;1.30;;;4.20;99.90;;;;;;4991701;28;20406;-75
2020/12/31 00:26:43;;;;;;;3.95;1.27;;;4.10;99.90;;;;;;4986448;28;20054;-74
2020/12/31 00:29:09;;;;;;;2.38;0.85;;;4.10;99.90;;;;;;4996509;28;20058;-74
2020/12/31 00:31:35;;;;;;;2.80;0.80;;;4.00;99.90;;;;;;5000489;28;20045;-74
2020/12/31 00:34:00;;;;;;;1.23;1.13;;;4.00;99.90;;;;;;4990325;28;20050;-75
2020/12/31 00:36:26;;;;;;;4.03;1.40;;;4.00;99.90;;;;;;4986281;28;20068;-76
2020/12/31 00:38:53;;;;;;;4.30;1.63;;;4.10;99.90;;;;;;4997290;28;20072;-74
2020/12/31 00:41:19;;;;;;;2.80;2.20;;;4.00;99.90;;;;;;5003813;28;20472;-74
2020/12/31 00:43:46;;;;;;;4.70;2.13;;;4.00;99.90;;;;;;4992165;28;20132;-74
2020/12/31 00:46:12;;;;;;;5.35;3.40;;;4.00;99.90;;;;;;4987536;28;20050;-74
2020/12/31 00:48:37;;;;;;;7.65;3.85;;;4.00;99.90;;;;;;4993169;28;20640;-74
2020/12/31 00:51:03;;;;;;;9.50;5.00;;;4.00;99.90;;;;;;5002745;28;20042;-72
2020/12/31 00:53:28;;;;;;;8.88;5.50;;;4.10;99.90;;;;;;5004780;28;20538;-72
2020/12/31 00:55:54;;;;;;;22.88;14.82;;;4.00;99.90;;;;;;5003770;28;20053;-74
2020/12/31 00:58:20;;;;;;;17.08;13.40;;;4.10;99.90;;;;;;5000219;28;20623;-75
2020/12/31 01:00:46;;;;;;;20.42;15.27;;;4.10;99.90;;;;;;5004211;28;20042;-75
2020/12/31 01:03:13;;;;;;;19.95;14.52;;;4.10;99.90;;;;;;5003180;28;20050;-74
2020/12/31 01:05:39;;;;;;;25.38;15.35;;;4.10;99.90;;;;;;5004705;28;20056;-75
2020/12/31 01:08:05;;;;;;;23.27;15.50;;;4.10;99.90;;;;;;4987400;28;20410;-74
2020/12/31 01:10:30;;;;;;;26.38;17.42;;;4.10;99.90;;;;;;4984783;28;20592;-75
2020/12/31 01:12:56;;;;;;;27.40;16.45;;;4.10;99.90;;;;;;4985769;28;20046;-75
2020/12/31 01:15:22;;;;;;;30.77;17.77;;;4.00;99.90;;;;;;4985485;28;20057;-75
2020/12/31 01:17:48;;;;;;;24.70;17.33;;;4.00;99.90;;;;;;4996332;28;20071;-74
2020/12/31 01:20:13;;;;;;;28.35;20.48;;;4.00;99.90;;;;;;5003218;28;20483;-72
2020/12/31 01:22:39;;;;;;;28.98;21.42;;;3.90;99.90;;;;;;4991176;28;20495;-75
2020/12/31 01:25:05;;;;;;;30.33;22.85;;;3.90;99.90;;;;;;4985127;28;20388;-74
2020/12/31 01:27:32;;;;;;;32.28;19.73;;;3.90;99.90;;;;;;4994602;28;20048;-74
2020/12/31 01:29:58;;;;;;;31.92;23.25;;;3.90;99.90;;;;;;5004550;28;20080;-74
2020/12/31 01:32:25;;;;;;;37.13;25.05;;;3.90;99.90;;;;;;5000285;28;20334;-74
2020/12/31 01:34:51;;;;;;;32.53;24.42;;;3.90;99.90;;;;;;5003995;28;20050;-74
2020/12/31 01:37:18;;;;;;;31.20;23.73;;;3.90;99.90;;;;;;5001563;28;20144;-73
2020/12/31 01:39:45;;;;;;;38.33;25.58;;;3.90;99.90;;;;;;5004286;28;20054;-74
2020/12/31 01:42:11;;;;;;;39.55;25.55;;;3.90;99.90;;;;;;4997348;28;20042;-74
2020/12/31 01:44:37;;;;;;;37.75;25.23;;;3.90;99.90;;;;;;4997704;28;20046;-73
2020/12/31 01:47:03;;;;;;;36.47;24.45;;;3.90;99.90;;;;;;5001223;28;20080;-75
2020/12/31 01:49:30;;;;;;;40.03;27.40;;;3.90;99.90;;;;;;5003965;28;20050;-73
2020/12/31 01:51:57;;;;;;;39.88;26.85;;;3.90;99.90;;;;;;4996453;28;20046;-73
2020/12/31 01:54:25;;;;;;;38.17;28.55;;;3.90;99.90;;;;;;5004339;28;20056;-73
2020/12/31 01:56:54;;;;;;;37.03;28.27;;;3.90;99.90;;;;;;4995688;28;20073;-74
2020/12/31 01:59:20;;;;;;;38.08;28.38;;;3.90;99.90;;;;;;4984647;28;20046;-74
2020/12/31 02:01:47;;;;;;;39.30;27.55;;;3.90;99.90;;;;;;4997465;28;20084;-73
2020/12/31 02:04:13;;;;;;;35.60;26.38;;;3.90;99.90;;;;;;5003595;28;20576;-75
2020/12/31 02:06:39;;;;;;;35.28;26.38;;;3.90;99.90;;;;;;4999313;28;20364;-75
2020/12/31 02:09:05;;;;;;;26.15;19.58;;;4.00;99.90;;;;;;5003960;28;20085;-74
2020/12/31 02:11:31;;;;;;;25.17;18.58;;;3.90;99.90;;;;;;4994790;28;20061;-74
2020/12/31 02:13:57;;;;;;;17.60;15.25;;;3.90;99.90;;;;;;4982982;28;20050;-74
2020/12/31 02:16:27;;;;;;;21.90;15.30;;;3.90;99.90;;;;;;4990191;28;20077;-74
2020/12/31 02:19:00;;;;;;;9.50;7.95;;;3.90;99.90;;;;;;4984294;28;20450;-74
2020/12/31 02:21:44;;;;;;;;;;;3.80;99.90;;;;;;4990829;28;20053;-74
2020/12/31 02:24:10;;;;;;;3.47;2.95;;;3.70;99.90;;;;;;5003255;28;20358;-74
2020/12/31 02:26:38;;;;;;;4.32;2.88;;;3.60;99.90;;;;;;4995365;28;20078;-74
2020/12/31 02:29:06;;;;;;;2.10;1.98;;;3.60;99.90;;;;;;4998626;28;20463;-73
2020/12/31 02:31:32;;;;;;;2.10;1.90;;;3.60;99.90;;;;;;4998071;28;20042;-73
2020/12/31 02:33:58;;;;;;;1.73;1.48;;;3.50;99.90;;;;;;5002144;28;20053;-74
2020/12/31 02:36:26;;;;;;;1.17;1.00;;;3.50;99.90;;;;;;4997551;28;20129;-74
2020/12/31 02:38:52;;;;;;;1.83;1.25;;;3.50;99.90;;;;;;4985005;28;20267;-75
2020/12/31 02:41:19;;;;;;;1.23;0.90;;;3.40;99.90;;;;;;4994223;28;20076;-74
2020/12/31 02:43:45;;;;;;;0.80;0.80;;;3.40;99.90;;;;;;4982982;28;20081;-75
2020/12/31 02:46:13;;;;;;;1.02;0.93;;;3.30;99.90;;;;;;4994511;28;20076;-73
2020/12/31 02:48:39;;;;;;;0.70;0.70;;;3.40;99.90;;;;;;4983894;28;20082;-74
2020/12/31 02:51:06;;;;;;;0.57;0.57;;;3.40;99.90;;;;;;4993731;28;20124;-74
2020/12/31 02:53:32;;;;;;;0.70;0.70;;;3.50;99.90;;;;;;4984809;28;20055;-74
2020/12/31 02:55:57;;;;;;;1.27;1.00;;;3.40;99.90;;;;;;4992330;28;20124;-73
2020/12/31 02:58:23;;;;;;;0.98;0.80;;;3.50;99.90;;;;;;4986591;28;20061;-73
2020/12/31 03:00:50;;;;;;;0.85;0.75;;;3.30;99.90;;;;;;4994829;28;20050;-74
2020/12/31 03:03:15;;;;;;;2.30;0.60;;;3.30;99.90;;;;;;4984918;28;20089;-74
2020/12/31 03:05:41;;;;;;;0.82;0.75;;;3.20;99.90;;;;;;4991834;28;20073;-74
2020/12/31 03:08:07;;;;;;;0.85;0.60;;;3.20;99.90;;;;;;4997434;28;20125;-75
2020/12/31 03:10:32;;;;;;;0.85;0.85;;;3.10;99.90;;;;;;4994867;28;20069;-75
2020/12/31 03:12:58;;;;;;;2.15;0.60;;;3.20;99.90;;;;;;4994875;28;20054;-74
2020/12/31 03:15:24;;;;;;;1.60;0.80;;;3.10;99.90;;;;;;4997156;28;20054;-74
2020/12/31 03:17:50;;;;;;;1.83;0.88;;;3.20;99.90;;;;;;4995864;28;20089;-74
2020/12/31 03:20:16;;;;;;;0.90;0.70;;;3.20;99.90;;;;;;4994354;28;20042;-74
2020/12/31 03:22:41;;;;;;;0.57;0.57;;;3.10;99.90;;;;;;4989621;28;20054;-74
2020/12/31 03:25:08;;;;;;;1.15;1.05;;;3.10;99.90;;;;;;4983238;28;20117;-74
2020/12/31 03:27:34;;;;;;;0.90;0.75;;;3.30;99.90;;;;;;4986690;28;20038;-74
2020/12/31 03:30:00;;;;;;;0.75;0.75;;;3.30;99.90;;;;;;5006896;28;20445;-74
2020/12/31 03:32:25;;;;;;;1.40;1.00;;;3.30;99.90;;;;;;4998561;28;20047;-74
2020/12/31 03:34:51;;;;;;;2.08;1.00;;;3.40;99.90;;;;;;4985820;28;20498;-74
2020/12/31 03:37:17;;;;;;;1.88;1.00;;;3.40;99.90;;;;;;4988877;28;20120;-73
2020/12/31 03:39:43;;;;;;;1.40;0.90;;;3.30;99.90;;;;;;4988358;28;20288;-73
2020/12/31 03:42:09;;;;;;;2.03;1.20;;;3.40;99.90;;;;;;4987557;28;20056;-74
2020/12/31 03:44:35;;;;;;;2.97;1.05;;;3.20;99.90;;;;;;5001647;28;20042;-74
2020/12/31 03:47:01;;;;;;;1.38;1.10;;;3.20;99.90;;;;;;5000049;28;20148;-73
2020/12/31 03:49:26;;;;;;;1.60;1.17;;;3.20;99.90;;;;;;5001216;28;20605;-73
2020/12/31 03:51:52;;;;;;;1.58;1.35;;;3.10;99.90;;;;;;4997000;28;20482;-72
2020/12/31 03:54:18;;;;;;;1.25;1.15;;;3.20;99.90;;;;;;5005336;28;20045;-74
2020/12/31 03:56:43;;;;;;;1.90;1.30;;;3.10;99.90;;;;;;4995156;28;20090;-74
2020/12/31 03:59:09;;;;;;;1.48;1.38;;;3.10;99.90;;;;;;5003170;28;20080;-74
2020/12/31 04:01:35;;;;;;;3.40;1.48;;;3.10;99.90;;;;;;4998634;28;20042;-74
2020/12/31 04:04:01;;;;;;;1.45;1.15;;;3.10;99.90;;;;;;4986685;28;20048;-74
2020/12/31 04:06:30;;;;;;;2.30;1.35;;;3.10;99.90;;;;;;4991268;28;20141;-73
2020/12/31 04:08:56;;;;;;;2.28;1.00;;;3.10;99.90;;;;;;4986069;28;20124;-73
2020/12/31 04:11:21;;;;;;;2.30;1.05;;;3.10;99.90;;;;;;4990077;28;20150;-75
2020/12/31 04:13:47;;;;;;;1.13;1.00;;;3.10;99.90;;;;;;4990058;28;20426;-75
2020/12/31 04:16:13;;;;;;;1.88;0.90;;;3.10;99.90;;;;;;4996257;28;20501;-74
2020/12/31 04:18:38;;;;;;;1.23;1.00;;;3.20;99.90;;;;;;5004139;28;20065;-74
2020/12/31 04:21:04;;;;;;;2.40;0.85;;;3.10;99.90;;;;;;4997425;28;20058;-74
2020/12/31 04:23:30;;;;;;;3.35;1.30;;;3.10;99.90;;;;;;4986845;28;20049;-73
2020/12/31 04:25:55;;;;;;;1.67;1.10;;;3.10;99.90;;;;;;4991987;28;20408;-74
2020/12/31 04:28:21;;;;;;;1.73;1.40;;;3.00;99.90;;;;;;4987822;28;20046;-74
2020/12/31 04:30:49;;;;;;;1.92;1.08;;;3.00;99.90;;;;;;4989659;28;20103;-74
2020/12/31 04:33:16;;;;;;;1.60;1.50;;;2.90;99.90;;;;;;4997475;28;20285;-74
2020/12/31 04:35:42;;;;;;;2.47;2.28;;;2.90;99.90;;;;;;5001458;28;20049;-74
2020/12/31 04:38:08;;;;;;;2.05;1.58;;;2.80;99.90;;;;;;4998600;28;20042;-73
2020/12/31 04:40:34;;;;;;;3.42;1.85;;;2.80;99.90;;;;;;5002875;28;20088;-72
2020/12/31 04:43:01;;;;;;;5.57;2.60;;;2.80;99.90;;;;;;4995688;28;20491;-74
2020/12/31 04:45:28;;;;;;;4.20;2.20;;;2.70;99.90;;;;;;5000854;28;20077;-74
2020/12/31 04:48:07;;;;;;;2.42;2.15;;;2.70;99.90;;;;;;4993218;28;20266;-74
2020/12/31 04:50:38;;;;;;;3.67;2.03;;;2.70;99.90;;;;;;4988398;28;20046;-73
2020/12/31 04:53:08;;;;;;;3.42;2.22;;;2.70;99.90;;;;;;4993243;28;20054;-74
2020/12/31 04:55:41;;;;;;;3.10;2.08;;;2.70;99.90;;;;;;4987813;28;20068;-73
2020/12/31 04:58:15;;;;;;;3.92;2.60;;;2.60;99.90;;;;;;4989680;28;20054;-74
2020/12/31 05:00:42;;;;;;;4.40;2.88;;;2.60;99.90;;;;;;4988087;28;20045;-74
2020/12/31 05:03:09;;;;;;;4.70;3.10;;;2.60;99.90;;;;;;5002557;28;20288;-75
2020/12/31 05:05:36;;;;;;;5.03;4.03;;;2.60;99.90;;;;;;5002477;28;20058;-72
2020/12/31 05:08:02;;;;;;;4.13;3.63;;;2.60;99.90;;;;;;4991203;28;20050;-73
2020/12/31 05:10:29;;;;;;;6.63;5.05;;;2.60;99.90;;;;;;4986198;28;20050;-74
2020/12/31 05:13:07;;;;;;;6.65;4.75;;;2.60;99.90;;;;;;4992771;28;20082;-73
2020/12/31 05:15:41;;;;;;;6.32;5.38;;;2.50;99.90;;;;;;4986314;28;20082;-74
2020/12/31 05:18:20;;;;;;;13.68;5.13;;;2.50;99.90;;;;;;4992253;28;20384;-74
2020/12/31 05:20:51;;;;;;;7.15;6.38;;;2.50;99.90;;;;;;4987410;28;20046;-72
2020/12/31 05:23:23;;;;;;;8.20;5.22;;;2.50;99.90;;;;;;4999222;28;20180;-74
2020/12/31 05:25:49;;;;;;;11.40;7.13;;;2.50;99.90;;;;;;4997958;28;20503;-74
2020/12/31 05:28:28;;;;;;;9.38;7.35;;;2.50;99.90;;;;;;4986840;28;20046;-73
2020/12/31 05:30:59;;;;;;;10.45;6.85;;;2.50;99.90;;;;;;4985913;28;20238;-74
2020/12/31 05:33:35;;;;;;;10.52;5.93;;;2.60;99.90;;;;;;4999559;28;20046;-75
2020/12/31 05:36:26;;;;;;;10.35;6.97;;;2.60;99.90;;;;;;4997195;28;20042;-73
2020/12/31 05:38:57;;;;;;;9.48;6.78;;;2.60;99.90;;;;;;4987097;28;20120;-74
2020/12/31 05:41:34;;;;;;;10.13;6.60;;;2.60;99.90;;;;;;4994965;28;20050;-74
2020/12/31 05:44:08;;;;;;;10.25;6.72;;;2.60;99.90;;;;;;5002835;28;20061;-73
2020/12/31 05:46:35;;;;;;;9.43;7.40;;;2.60;99.90;;;;;;4999322;28;20046;-74
2020/12/31 05:49:06;;;;;;;8.48;7.22;;;2.60;99.90;;;;;;5004111;28;20046;-74
2020/12/31 05:51:33;;;;;;;9.32;7.78;;;2.70;99.90;;;;;;4986647;28;20410;-74
2020/12/31 05:54:14;;;;;;;9.48;7.70;;;2.70;99.90;;;;;;4984777;28;20104;-72
2020/12/31 05:56:44;;;;;;;10.93;7.90;;;2.70;99.90;;;;;;4996387;28;20054;-74
2020/12/31 05:59:32;;;;;;;10.75;8.23;;;2.70;99.90;;;;;;5003701;28;20499;-74
2020/12/31 06:02:00;;;;;;;11.30;8.32;;;2.70;99.90;;;;;;4999568;28;20517;-74
2020/12/31 06:04:29;;;;;;;11.95;9.60;;;2.70;99.90;;;;;;5002933;28;20491;-73
2020/12/31 06:06:59;;;;;;;12.38;9.63;;;2.70;99.90;;;;;;4988093;28;20050;-73
2020/12/31 06:09:35;;;;;;;14.88;9.65;;;2.70;99.90;;;;;;4988584;28;20475;-73
2020/12/31 06:12:07;;;;;;;13.77;10.10;;;2.70;99.90;;;;;;4983354;28;20052;-73
2020/12/31 06:14:34;;;;;;;14.88;10.95;;;2.80;99.90;;;;;;4985145;28;20046;-74
2020/12/31 06:17:02;;;;;;;14.73;11.10;;;2.80;99.90;;;;;;5002654;28;20464;-73
2020/12/31 06:19:32;;;;;;;15.40;10.38;;;2.80;99.90;;;;;;4998389;28;20044;-74
2020/12/31 06:22:01;;;;;;;13.63;11.27;;;2.80;99.90;;;;;;5002113;28;20057;-72
2020/12/31 06:24:36;;;;;;;15.38;11.27;;;2.80;99.90;;;;;;4999620;28;20479;-72
2020/12/31 06:27:05;;;;;;;14.80;11.10;;;2.80;99.90;;;;;;5002130;28;20060;-74
2020/12/31 06:29:37;;;;;;;15.65;11.95;;;2.80;99.90;;;;;;5000165;28;20049;-73
2020/12/31 06:32:11;;;;;;;17.85;12.48;;;2.80;99.90;;;;;;5002822;28;20049;-74
2020/12/31 06:34:37;;;;;;;17.80;12.40;;;2.80;99.90;;;;;;4999036;28;20078;-73
2020/12/31 06:37:08;;;;;;;21.80;13.27;;;2.80;99.90;;;;;;4983478;28;20057;-74
2020/12/31 06:39:34;;;;;;;21.27;13.13;;;2.70;99.90;;;;;;4985368;28;20151;-74
2020/12/31 06:42:00;;;;;;;19.42;12.82;;;2.70;99.90;;;;;;4982656;28;20045;-74
2020/12/31 06:44:29;;;;;;;19.42;12.95;;;2.70;99.90;;;;;;4984926;28;20128;-73
2020/12/31 06:46:55;;;;;;;20.23;13.32;;;2.80;99.90;;;;;;4983940;28;20181;-74
2020/12/31 06:49:20;;;;;;;21.13;13.63;;;2.70;99.90;;;;;;4986330;28;20551;-73
2020/12/31 06:51:46;;;;;;;20.02;14.25;;;2.80;99.90;;;;;;5002806;28;20046;-74
2020/12/31 06:54:11;;;;;;;19.85;13.85;;;2.80;99.90;;;;;;4999849;28;20543;-74
2020/12/31 06:56:43;;;;;;;22.45;13.48;;;2.70;99.90;;;;;;4982809;28;20093;-74
2020/12/31 06:59:28;;;;;;;19.83;14.20;;;2.70;99.90;;;;;;4994410;28;20057;-74
2020/12/31 07:01:56;;;;;;;22.40;13.73;;;2.70;99.90;;;;;;4985813;28;20104;-74
2020/12/31 07:04:34;;;;;;;18.80;13.18;;;2.80;99.90;;;;;;4998158;28;20501;-72
2020/12/31 07:07:21;;;;;;;21.55;13.93;;;2.80;99.90;;;;;;4985614;28;20054;-74
2020/12/31 07:10:00;;;;;;;22.33;13.40;;;2.70;99.90;;;;;;4995792;28;20046;-72
2020/12/31 07:12:44;;;;;;;23.10;14.57;;;2.70;99.90;;;;;;4998096;28;20061;-72
2020/12/31 07:15:12;;;;;;;21.80;14.13;;;2.70;99.90;;;;;;4990557;28;20061;-74
2020/12/31 07:17:45;;;;;;;23.13;14.88;;;2.80;99.90;;;;;;5001145;28;20058;-72
2020/12/31 07:20:16;;;;;;;23.05;15.18;;;2.80;99.90;;;;;;5002039;28;20539;-73
2020/12/31 07:22:43;;;;;;;23.08;15.20;;;2.80;99.90;;;;;;5003212;28;20054;-73
2020/12/31 07:25:12;;;;;;;24.58;14.60;;;2.80;99.90;;;;;;5000547;28;20099;-73
2020/12/31 07:27:42;;;;;;;25.63;15.10;;;2.80;99.90;;;;;;4998758;28;20141;-73
2020/12/31 07:30:07;;;;;;;25.70;14.73;;;2.80;99.90;;;;;;5001403;28;20669;-73
2020/12/31 07:32:53;;;;;;;24.95;14.55;;;2.80;99.90;;;;;;5001559;28;20046;-72
2020/12/31 07:35:33;;;;;;;22.65;14.73;;;2.90;99.90;;;;;;5002522;28;20568;-73
2020/12/31 07:38:11;;;;;;;24.08;14.10;;;2.80;99.90;;;;;;5002749;28;20046;-72
2020/12/31 07:40:42;;;;;;;22.17;13.40;;;2.80;99.90;;;;;;5005360;28;20050;-73
2020/12/31 07:43:17;;;;;;;26.98;14.13;;;2.80;99.90;;;;;;5004725;28;20375;-73
2020/12/31 07:45:53;;;;;;;23.25;14.73;;;2.80;99.90;;;;;;5005076;28;20443;-73
2020/12/31 07:48:20;;;;;;;23.65;13.82;;;2.80;99.90;;;;;;5004533;28;20735;-73
2020/12/31 07:50:51;;;;;;;24.10;14.93;;;2.80;99.90;;;;;;5002303;28;20041;-73
2020/12/31 07:53:17;;;;;;;25.65;15.70;;;2.80;99.90;;;;;;5004304;28;20049;-73
2020/12/31 07:55:52;;;;;;;25.70;14.48;;;2.80;99.90;;;;;;5005042;28;20563;-73
2020/12/31 07:58:22;;;;;;;24.40;13.80;;;2.80;99.90;;;;;;5004029;28;20234;-73
2020/12/31 08:01:01;;;;;;;27.83;14.13;;;2.80;99.90;;;;;;4988843;28;20038;-74
2020/12/31 08:03:27;;;;;;;24.95;13.63;;;2.80;99.90;;;;;;5004625;28;20088;-72
2020/12/31 08:06:00;;;;;;;22.27;14.38;;;2.80;99.90;;;;;;5004998;28;20116;-72
2020/12/31 08:08:27;;;;;;;22.83;11.75;;;2.80;99.90;;;;;;5004977;28;20041;-74
2020/12/31 08:10:52;;;;;;;23.95;13.32;;;2.80;99.90;;;;;;5003568;28;20469;-72
2020/12/31 08:13:18;;;;;;;25.52;13.30;;;2.80;99.90;;;;;;5004089;28;20054;-73
2020/12/31 08:15:51;;;;;;;21.17;12.38;;;2.80;99.90;;;;;;5004369;28;20485;-71
2020/12/31 08:18:18;;;;;;;20.73;12.25;;;2.80;99.90;;;;;;4997602;28;20530;-72
2020/12/31 08:20:45;;;;;;;19.83;12.60;;;2.80;99.90;;;;;;5005108;28;20053;-72
2020/12/31 08:23:17;;;;;;;19.38;11.73;;;2.80;99.90;;;;;;5003973;28;20096;-73
2020/12/31 08:25:45;;;;;;;19.13;11.48;;;2.80;99.90;;;;;;5001986;28;20541;-74
2020/12/31 08:28:12;;;;;;;20.05;11.02;;;2.80;99.90;;;;;;5002386;28;20145;-74
2020/12/31 08:30:38;;;;;;;17.00;10.98;;;2.80;99.90;;;;;;5003281;28;20306;-73
2020/12/31 08:33:07;;;;;;;16.88;10.73;;;2.80;99.90;;;;;;5005080;28;20510;-74
2020/12/31 08:35:37;;;;;;;19.60;10.35;;;3.00;99.90;;;;;;4996959;28;20053;-74
2020/12/31 08:38:17;;;;;;;15.00;10.27;;;3.30;99.90;;;;;;5003618;28;20365;-74
2020/12/31 08:40:49;;;;;;;14.35;7.13;;;3.90;99.90;;;;;;4995659;28;20553;-75
2020/12/31 08:43:38;;;;;;;9.32;7.43;;;4.20;99.90;;;;;;5003251;28;20046;-72
2020/12/31 08:46:08;;;;;;;11.73;7.45;;;4.10;99.90;;;;;;4999188;28;20053;-73
2020/12/31 08:48:35;;;;;;;7.57;5.97;;;4.60;99.90;;;;;;5001099;28;20049;-75
2020/12/31 08:51:12;;;;;;;8.25;6.47;;;4.90;99.90;;;;;;5000698;28;20050;-74
2020/12/31 08:53:54;;;;;;;6.57;5.88;;;5.10;99.90;;;;;;5001531;28;20050;-74
2020/12/31 08:56:21;;;;;;;6.78;5.07;;;5.60;99.40;;;;;;5002716;28;20092;-73
2020/12/31 08:58:47;;;;;;;7.07;5.10;;;6.10;98.00;;;;;;5002656;28;20053;-73
2020/12/31 09:01:26;;;;;;;4.95;4.45;;;6.60;97.20;;;;;;5002430;28;20427;-75
2020/12/31 09:04:06;;;;;;;6.50;4.85;;;6.70;96.20;;;;;;5001090;28;20058;-74
2020/12/31 09:06:32;;;;;;;6.28;5.28;;;6.00;97.50;;;;;;5001016;28;20137;-75
2020/12/31 09:08:58;;;;;;;9.15;5.60;;;6.80;97.60;;;;;;5002266;28;20120;-75
2020/12/31 09:11:28;;;;;;;7.00;4.78;;;7.00;95.90;;;;;;5002729;28;20263;-71
2020/12/31 09:14:05;;;;;;;7.25;5.20;;;7.20;95.30;;;;;;5003392;28;20069;-71
2020/12/31 09:16:30;;;;;;;5.63;4.53;;;7.50;94.70;;;;;;4996780;28;20108;-71
2020/12/31 09:19:03;;;;;;;6.10;4.57;;;8.10;94.50;;;;;;5006363;28;20356;-71
2020/12/31 09:21:30;;;;;;;5.28;3.95;;;7.00;96.10;;;;;;4991673;28;20046;-71
2020/12/31 09:23:56;;;;;;;7.15;4.35;;;6.30;97.00;;;;;;4998725;28;20169;-70
2020/12/31 09:26:26;;;;;;;5.57;3.22;;;6.40;98.50;;;;;;5000827;28;20050;-71
2020/12/31 09:28:52;;;;;;;8.20;5.03;;;6.10;98.70;;;;;;4989865;28;20046;-72
2020/12/31 09:31:22;;;;;;;5.45;4.70;;;5.70;98.40;;;;;;5003285;28;20121;-72
2020/12/31 09:33:48;;;;;;;6.50;4.82;;;5.30;99.30;;;;;;5001505;28;20096;-71
2020/12/31 09:36:24;;;;;;;9.82;5.60;;;5.00;99.90;;;;;;5000278;28;20127;-71
2020/12/31 09:38:50;;;;;;;9.25;4.78;;;4.80;99.90;;;;;;4983794;28;20050;-71
2020/12/31 09:41:16;;;;;;;7.00;4.97;;;4.70;99.90;;;;;;4983565;28;20278;-71
2020/12/31 09:43:41;;;;;;;8.93;6.45;;;4.50;99.90;;;;;;5001111;28;20038;-70
2020/12/31 09:49:51;;;;;;;9.02;5.53;;;4.30;99.90;;;;;;5009232;28;20429;-71
2020/12/31 09:55:57;;;;;;;11.43;6.97;;;4.50;99.90;;;;;;5008871;28;20133;-71
2020/12/31 10:02:04;;;;;;;6.82;5.05;;;4.50;99.90;;;;;;5008562;28;20468;-71
2020/12/31 10:08:10;;;;;;;10.68;5.35;;;5.00;99.90;;;;;;5009210;28;20045;-72
2020/12/31 10:14:17;;;;;;;3.85;2.78;;;6.30;99.30;;;;;;5008814;28;20040;-69
2020/12/31 10:20:23;;;;;;;6.35;3.90;;;5.90;99.30;;;;;;5008652;28;20482;-71
2020/12/31 10:26:36;;;;;;;8.85;4.85;;;6.00;99.90;;;;;;5008109;28;20367;-71
2020/12/31 10:32:43;;;;;;;9.05;5.03;;;6.60;98.70;;;;;;5008364;28;20059;-70
2020/12/31 10:38:50;;;;;;;5.05;2.28;;;6.50;97.30;;;;;;5008796;28;20720;-72
2020/12/31 10:44:57;;;;;;;7.43;3.22;;;9.80;93.50;;;;;;5008232;28;20489;-71
2020/12/31 10:51:03;;;;;;;5.35;3.10;;;10.50;91.10;;;;;;5008201;28;20044;-70
2020/12/31 10:57:10;;;;;;;6.03;3.30;;;9.20;91.70;;;;;;5007719;28;20133;-72
2020/12/31 11:03:16;;;;;;;6.00;2.95;;;9.10;92.80;;;;;;5008608;28;20041;-75
2020/12/31 11:09:23;;;;;;;6.35;3.13;;;10.00;91.50;;;;;;5008412;28;20048;-74
2020/12/31 11:15:29;;;;;;;5.22;2.63;;;9.00;92.40;;;;;;5008488;28;20140;-73
2020/12/31 11:21:36;;;;;;;8.15;2.90;;;8.70;94.90;;;;;;5005239;28;20530;-74
2020/12/31 11:27:42;;;;;;;2.67;2.15;;;9.70;92.10;;;;;;5008025;28;20045;-74
2020/12/31 11:33:49;;;;;;;4.25;2.25;;;8.40;94.40;;;;;;5007956;28;20061;-75
2020/12/31 11:39:55;;;;;;;4.90;1.90;;;9.00;93.90;;;;;;5006992;28;20061;-73
2020/12/31 11:46:05;;;;;;;3.78;2.10;;;7.70;95.60;;;;;;5007676;28;20088;-75
2020/12/31 11:52:11;;;;;;;7.25;4.20;;;7.00;98.20;;;;;;5011595;28;20437;-75
2020/12/31 11:58:17;;;;;;;6.82;5.00;;;6.60;98.40;;;;;;5011404;28;20112;-75
2020/12/31 12:04:37;;;;;;;11.10;6.33;;;6.20;99.90;;;;;;5010729;28;20072;-73
2020/12/31 12:10:48;;;;;;;11.43;7.43;;;5.90;99.90;;;;;;5010656;28;20496;-75
2020/12/31 12:16:55;;;;;;;8.77;6.78;;;5.40;99.90;;;;;;5010906;28;20493;-74
2020/12/31 12:27:19;;;;;;;10.25;6.35;;;5.70;99.90;;;;;;5010346;28;20066;-75
2020/12/31 12:33:26;;;;;;;11.98;6.22;;;5.70;99.90;;;;;;5010152;28;20099;-76
2020/12/31 12:39:32;;;;;;;16.55;8.07;;;5.30;99.90;;;;;;5010184;28;20226;-75
2020/12/31 12:45:38;;;;;;;13.48;9.48;;;5.20;99.90;;;;;;5010311;28;20045;-72
2020/12/31 12:51:45;;;;;;;10.98;7.75;;;5.30;99.90;;;;;;5009872;28;20107;-75
2020/12/31 12:57:51;;;;;;;11.13;6.53;;;5.30;99.90;;;;;;5010214;28;20411;-73
2020/12/31 13:03:57;;;;;;;11.73;6.28;;;5.20;99.90;;;;;;5009872;28;20205;-74
2020/12/31 13:10:04;;;;;;;11.35;5.90;;;5.60;99.90;;;;;;5009530;28;20052;-74
2020/12/31 13:16:11;;;;;;;9.10;6.88;;;5.60;99.90;;;;;;5009876;28;20048;-74
2020/12/31 13:26:43;;;;;;;5.93;3.95;;;5.50;99.90;;;;;;5008952;28;20095;-75
2020/12/31 13:32:49;;;;;;;10.13;4.25;;;5.70;99.90;;;;;;5009843;28;20037;-76
2020/12/31 13:38:56;;;;;;;10.00;5.20;;;5.90;99.90;;;;;;5009331;28;20060;-73
2020/12/31 13:45:04;;;;;;;5.97;4.70;;;6.90;99.90;;;;;;5009179;28;20044;-72
2020/12/31 13:51:15;;;;;;;4.88;3.90;;;6.80;99.90;;;;;;5009396;28;20398;-74
2020/12/31 13:57:21;;;;;;;5.53;3.13;;;9.10;96.70;;;;;;5009095;28;20100;-73
2020/12/31 14:03:29;;;;;;;3.38;3.00;;;10.00;95.10;;;;;;5009328;28;20041;-76
2020/12/31 14:09:36;;;;;;;7.07;2.63;;;9.20;95.00;;;;;;5008734;28;20088;-74
2020/12/31 14:15:42;;;;;;;4.53;2.80;;;10.20;94.00;;;;;;5008516;28;20053;-73
2020/12/31 14:21:49;;;;;;;6.78;2.70;;;10.40;93.10;;;;;;5008806;28;20059;-76
2020/12/31 14:32:28;;;;;;;5.35;2.97;;;8.30;96.30;;;;;;5008474;28;20076;-76
2020/12/31 14:38:34;;;;;;;3.67;2.85;;;7.80;95.90;;;;;;5007700;28;20517;-74
2020/12/31 14:44:40;;;;;;;3.78;2.55;;;7.80;97.20;;;;;;5008268;28;20077;-72
2020/12/31 14:50:48;;;;;;;6.20;3.58;;;6.90;98.10;;;;;;5008616;28;20048;-75
2020/12/31 14:56:55;;;;;;;9.00;3.00;;;6.40;99.70;;;;;;5008281;28;20041;-75
2020/12/31 15:03:03;;;;;;;10.68;4.70;;;6.40;99.90;;;;;;5008025;28;20041;-73
2020/12/31 15:09:10;;;;;;;9.88;5.25;;;5.80;99.90;;;;;;5007906;28;20037;-75
2020/12/31 15:15:16;;;;;;;11.27;5.75;;;5.90;99.90;;;;;;5008458;28;20128;-75
2020/12/31 15:21:23;;;;;;;8.65;5.35;;;5.40;99.90;;;;;;5008363;28;20052;-74
2020/12/31 15:42:20;;;;;;;11.45;7.05;;;4.30;99.90;;;;;;5011847;28;20037;-74
2020/12/31 15:48:29;;;;;;;12.00;7.85;;;4.20;99.90;;;;;;5011191;28;20045;-74
2020/12/31 15:54:36;;;;;;;14.02;10.93;;;4.00;99.90;;;;;;5011021;28;20041;-72
2020/12/31 16:00:42;;;;;;;19.30;10.80;;;3.90;99.90;;;;;;5010478;28;20104;-75
2020/12/31 16:17:32;;;;;;;14.95;9.20;;;3.70;99.90;;;;;;5010501;28;20084;-75
2020/12/31 16:23:40;;;;;;;17.75;11.85;;;3.70;99.90;;;;;;5010551;28;20045;-74
2020/12/31 16:34:00;;;;;;;15.25;10.80;;;3.70;99.90;;;;;;5010679;28;20104;-76
2020/12/31 16:40:08;;;;;;;13.82;10.63;;;3.60;99.90;;;;;;5010030;28;20057;-75
2020/12/31 16:46:14;;;;;;;15.35;13.05;;;3.60;99.90;;;;;;5009709;28;20104;-74
2020/12/31 16:52:21;;;;;;;20.67;11.75;;;3.80;99.90;;;;;;5010921;28;20060;-75
2020/12/31 16:58:28;;;;;;;18.88;12.63;;;3.90;99.90;;;;;;5010683;28;20215;-73
2020/12/31 17:04:34;;;;;;;15.10;11.40;;;3.80;99.90;;;;;;5009353;28;20115;-75
2020/12/31 17:10:43;;;;;;;17.17;11.15;;;3.80;99.90;;;;;;5009795;28;20041;-74
2020/12/31 17:16:50;;;;;;;14.05;11.02;;;3.80;99.90;;;;;;5010236;28;20037;-75
2020/12/31 17:22:56;;;;;;;17.10;12.50;;;4.00;99.90;;;;;;5009848;28;20044;-75
2020/12/31 17:33:29;;;;;;;20.95;15.32;;;3.80;99.90;;;;;;5009442;28;20076;-75
2020/12/31 17:39:35;;;;;;;23.67;15.25;;;3.80;99.90;;;;;;5009618;28;20529;-75
2020/12/31 17:45:42;;;;;;;32.20;23.02;;;3.80;99.90;;;;;;5009309;28;20438;-73
2020/12/31 17:51:49;;;;;;;33.67;22.25;;;3.90;99.90;;;;;;5009749;28;20413;-75
2020/12/31 17:57:55;;;;;;;37.40;24.27;;;3.80;99.90;;;;;;5009182;28;20061;-75
2020/12/31 18:04:02;;;;;;;40.38;23.38;;;3.60;99.90;;;;;;5009425;28;20044;-76
2020/12/31 18:10:08;;;;;;;33.33;23.63;;;3.60;99.90;;;;;;5008944;28;20100;-74
2020/12/31 18:16:14;;;;;;;37.40;25.65;;;3.70;99.90;;;;;;5009182;28;20596;-76
2020/12/31 18:22:21;;;;;;;29.77;20.80;;;3.70;99.90;;;;;;5008604;28;20449;-74